createdAt,value
2023-04-03T00:00:15.005Z,10.40
2023-04-03T00:05:37.342Z,9.93
2023-04-03T00:10:39.857Z,13.18
2023-04-03T00:15:42.562Z,10.23
2023-04-03T00:20:45.283Z,8.98
2023-04-03T00:25:47.738Z,8.83
2023-04-03T00:30:51.367Z,9.77
2023-04-03T00:40:56.251Z,9.43
2023-04-03T00:45:59.866Z,10.18
2023-04-03T00:56:07.260Z,10.88
2023-04-03T01:01:14.182Z,8.63
2023-04-03T01:06:18.612Z,7.53
2023-04-03T01:11:22.992Z,7.97
2023-04-03T01:21:38.890Z,9.25
2023-04-03T01:26:41.644Z,8.77
2023-04-03T01:31:50.385Z,3.97
2023-04-03T01:36:53.756Z,15.00
2023-04-03T01:41:57.254Z,9.73
2023-04-03T01:47:07.703Z,10.82
2023-04-03T01:52:10.684Z,11.13
2023-04-03T01:57:14.809Z,7.93
2023-04-03T02:02:18.030Z,8.60
2023-04-03T02:07:20.555Z,6.53
2023-04-03T02:12:23.020Z,15.82
2023-04-03T02:17:25.472Z,11.98
2023-04-03T02:22:27.930Z,10.02
2023-04-03T02:27:30.204Z,7.57
2023-04-03T02:32:32.753Z,7.50
2023-04-03T02:37:36.343Z,5.72
2023-04-03T02:42:38.998Z,11.97
2023-04-03T02:47:42.385Z,7.63
2023-04-03T02:57:48.142Z,8.15
2023-04-03T03:02:51.176Z,9.13
2023-04-03T03:07:54.259Z,5.30
2023-04-03T03:12:57.038Z,8.43
2023-04-03T03:17:59.483Z,7.33
2023-04-03T03:23:02.135Z,11.23
2023-04-03T03:28:04.645Z,7.97
2023-04-03T03:33:07.252Z,9.63
2023-04-03T03:38:09.913Z,8.45
2023-04-03T03:43:12.488Z,8.77
2023-04-03T03:48:15.685Z,11.10
2023-04-03T03:53:18.330Z,11.48
2023-04-03T03:58:20.831Z,10.43
2023-04-03T04:03:23.563Z,6.10
2023-04-03T04:08:27.358Z,8.55
2023-04-03T04:13:30.181Z,11.47
2023-04-03T04:18:32.742Z,10.15
2023-04-03T04:23:35.270Z,6.85
2023-04-03T04:28:37.961Z,18.63
2023-04-03T04:33:42.112Z,11.20
2023-04-03T04:38:47.576Z,7.60
2023-04-03T04:43:51.476Z,13.18
2023-04-03T04:48:54.378Z,9.43
2023-04-03T04:53:58.638Z,10.90
2023-04-03T04:59:02.387Z,7.63
2023-04-03T05:09:08.082Z,11.65
2023-04-03T05:14:11.450Z,9.95
2023-04-03T05:19:13.964Z,11.25
2023-04-03T05:24:17.992Z,6.55
2023-04-03T05:29:21.078Z,4.00
2023-04-03T05:34:24.377Z,5.43
2023-04-03T05:39:29.823Z,5.18
2023-04-03T05:49:36.114Z,6.75
2023-04-03T05:54:38.641Z,12.32
2023-04-03T05:59:51.029Z,4.47
2023-04-03T06:04:54.919Z,11.90
2023-04-03T06:09:58.425Z,17.35
2023-04-03T06:15:00.911Z,15.63
2023-04-03T06:20:04.937Z,30.05
2023-04-03T06:25:07.904Z,14.25
2023-04-03T06:30:10.821Z,18.50
2023-04-03T06:35:13.229Z,11.33
2023-04-03T06:40:20.833Z,14.70
2023-04-03T06:45:23.482Z,18.90
2023-04-03T06:50:26.002Z,17.75
2023-04-03T06:55:28.906Z,15.98
2023-04-03T07:00:32.529Z,11.48
2023-04-03T07:05:34.885Z,13.00
2023-04-03T07:10:39.314Z,19.35
2023-04-03T07:15:41.967Z,8.65
2023-04-03T07:20:44.665Z,20.97
2023-04-03T07:25:48.381Z,16.97
2023-04-03T07:30:53.621Z,25.58
2023-04-03T07:35:56.559Z,23.83
2023-04-03T07:40:59.360Z,9.88
2023-04-03T07:46:01.834Z,30.27
2023-04-03T07:51:05.727Z,28.30
2023-04-03T07:56:08.695Z,21.77
2023-04-03T08:01:11.357Z,18.27
2023-04-03T08:06:16.902Z,8.70
2023-04-03T08:11:22.115Z,17.50
2023-04-03T08:21:29.236Z,13.25
2023-04-03T08:26:32.211Z,7.88
2023-04-03T08:31:34.593Z,25.98
2023-04-03T08:36:37.053Z,13.45
2023-04-03T08:41:44.716Z,13.77
2023-04-03T08:47:12.707Z,13.68
2023-04-03T08:52:17.971Z,11.15
2023-04-03T08:57:32.655Z,14.20
2023-04-03T09:02:51.908Z,14.73
2023-04-03T09:08:01.511Z,13.30
2023-04-03T09:13:26.118Z,12.52
2023-04-03T09:18:33.266Z,6.00
2023-04-03T09:23:43.788Z,8.05
2023-04-03T09:28:50.500Z,7.20
2023-04-03T09:33:56.658Z,5.00
2023-04-03T09:39:07.376Z,11.25
2023-04-03T09:44:26.155Z,8.20
2023-04-03T09:49:28.628Z,6.72
2023-04-03T09:54:30.945Z,10.70
2023-04-03T09:59:33.632Z,18.80
2023-04-03T10:04:43.270Z,7.53
2023-04-03T10:09:56.185Z,6.78
2023-04-03T10:15:01.963Z,5.27
2023-04-03T10:20:28.684Z,6.93
2023-04-03T10:25:42.207Z,14.43
2023-04-03T10:30:53.949Z,15.13
2023-04-03T10:36:24.716Z,16.98
2023-04-03T10:41:42.491Z,13.93
2023-04-03T10:46:51.099Z,30.98
2023-04-03T10:52:02.214Z,7.70
2023-04-03T10:57:12.607Z,11.10
2023-04-03T11:02:24.188Z,6.28
2023-04-03T11:07:35.042Z,6.22
2023-04-03T11:12:54.407Z,6.22
2023-04-03T11:18:05.697Z,5.90
2023-04-03T11:23:18.330Z,2.55
2023-04-03T11:28:20.984Z,10.40
2023-04-03T11:33:30.163Z,11.87
2023-04-03T11:38:37.568Z,6.75
2023-04-03T11:43:58.197Z,7.57
2023-04-03T11:49:00.869Z,8.73
2023-04-03T11:54:45.834Z,8.23
2023-04-03T11:59:52.194Z,8.05
2023-04-03T12:05:28.539Z,18.75
2023-04-03T12:10:32.562Z,10.40
2023-04-03T12:15:38.430Z,15.95
2023-04-03T12:20:49.882Z,24.48
2023-04-03T12:25:53.068Z,27.77
2023-04-03T12:30:56.775Z,35.95
2023-04-03T12:36:47.168Z,12.88
2023-04-03T12:41:58.908Z,9.40
2023-04-03T12:47:02.317Z,31.33
2023-04-03T12:52:42.067Z,12.95
2023-04-03T12:57:45.105Z,19.63
2023-04-03T13:02:47.793Z,15.63
2023-04-03T13:07:58.658Z,13.87
2023-04-03T13:13:09.741Z,28.88
2023-04-03T13:18:42.291Z,19.60
2023-04-03T13:23:50.170Z,8.13
2023-04-03T13:28:54.820Z,5.43
2023-04-03T13:34:05.031Z,15.13
2023-04-03T13:39:23.419Z,7.50
2023-04-03T13:44:28.918Z,8.02
2023-04-03T13:49:37.690Z,6.47
2023-04-03T13:54:40.551Z,4.88
2023-04-03T13:59:44.487Z,7.90
2023-04-03T14:04:50.653Z,7.35
2023-04-03T14:09:53.946Z,21.70
2023-04-03T14:14:57.167Z,11.60
2023-04-03T14:19:59.784Z,18.15
2023-04-03T14:25:02.886Z,17.27
2023-04-03T14:30:10.467Z,38.78
2023-04-03T14:35:13.005Z,61.00
2023-04-03T14:40:18.828Z,44.92
2023-04-03T14:45:21.703Z,27.50
2023-04-03T14:50:28.826Z,21.33
2023-04-03T14:55:31.647Z,10.70
2023-04-03T15:00:34.151Z,16.67
2023-04-03T15:05:37.559Z,17.70
2023-04-03T15:10:40.212Z,23.23
2023-04-03T15:15:43.253Z,27.80
2023-04-03T15:20:46.004Z,19.50
2023-04-03T15:25:49.934Z,21.23
2023-04-03T15:30:52.485Z,26.25
2023-04-03T15:36:02.918Z,19.48
2023-04-03T15:41:10.037Z,23.55
2023-04-03T15:46:14.167Z,33.05
2023-04-03T15:51:16.681Z,18.80
2023-04-03T15:56:19.281Z,18.63
2023-04-03T16:01:21.845Z,14.73
2023-04-03T16:06:25.236Z,26.65
2023-04-03T16:11:28.218Z,36.75
2023-04-03T16:16:31.286Z,28.90
2023-04-03T16:21:34.118Z,24.15
2023-04-03T16:26:43.627Z,20.08
2023-04-03T16:31:46.370Z,24.38
2023-04-03T16:36:49.898Z,29.60
2023-04-03T16:41:52.647Z,27.85
2023-04-03T16:46:56.096Z,18.90
2023-04-03T16:57:01.395Z,53.45
2023-04-03T17:02:04.156Z,42.23
2023-04-03T17:07:07.478Z,59.55
2023-04-03T17:12:09.901Z,38.88
2023-04-03T17:17:12.621Z,43.47
2023-04-03T17:22:17.758Z,66.63
2023-04-03T17:27:24.147Z,36.38
2023-04-03T17:32:27.071Z,25.15
2023-04-03T17:37:29.812Z,20.98
2023-04-03T17:42:32.873Z,33.33
2023-04-03T17:47:35.739Z,40.67
2023-04-03T17:52:41.452Z,41.25
2023-04-03T17:57:44.256Z,48.70
2023-04-03T18:02:47.137Z,34.03
2023-04-03T18:07:50.210Z,55.05
2023-04-03T18:12:53.836Z,43.80
2023-04-03T18:17:58.242Z,50.72
2023-04-03T18:23:02.347Z,30.20
2023-04-03T18:28:07.409Z,39.97
2023-04-03T18:33:10.519Z,51.38
2023-04-03T18:38:14.458Z,45.55
2023-04-03T18:43:20.115Z,58.95
2023-04-03T18:48:23.299Z,45.78
2023-04-03T18:58:56.248Z,55.50
2023-04-03T19:03:59.615Z,78.90
2023-04-03T19:09:04.267Z,37.25
2023-04-03T19:14:16.148Z,41.95
2023-04-03T19:19:19.714Z,35.00
2023-04-03T19:24:22.439Z,40.55
2023-04-03T19:29:25.338Z,35.75
2023-04-03T19:34:27.837Z,17.40
2023-04-03T19:39:33.879Z,20.40
2023-04-03T19:44:37.114Z,16.35
2023-04-03T19:49:39.805Z,15.32
2023-04-03T19:54:44.223Z,15.65
2023-04-03T19:59:51.125Z,9.65
2023-04-03T20:05:22.910Z,16.85
2023-04-03T20:10:54.264Z,16.88
2023-04-03T20:16:06.763Z,19.08
2023-04-03T20:21:19.228Z,17.55
2023-04-03T20:26:27.192Z,16.38
2023-04-03T20:31:30.016Z,30.15
2023-04-03T20:36:33.927Z,23.77
2023-04-03T20:41:38.982Z,18.67
2023-04-03T20:46:52.288Z,22.98
2023-04-03T20:51:57.095Z,21.70
2023-04-03T20:56:59.774Z,13.88
2023-04-03T21:02:05.729Z,14.32
2023-04-03T21:07:50.101Z,13.93
2023-04-03T21:13:34.184Z,10.05
2023-04-03T21:19:12.659Z,9.60
2023-04-03T21:24:19.598Z,12.35
2023-04-03T21:29:29.044Z,24.58
2023-04-03T21:34:44.964Z,25.48
2023-04-03T21:39:55.304Z,27.85
2023-04-03T21:45:20.768Z,16.67
2023-04-03T21:50:24.233Z,11.88
2023-04-03T21:55:27.070Z,12.48
2023-04-03T22:00:30.912Z,11.68
2023-04-03T22:05:35.355Z,12.33
2023-04-03T22:10:41.669Z,14.80
2023-04-03T22:15:52.119Z,11.88
2023-04-03T22:21:15.630Z,10.77
2023-04-03T22:26:44.169Z,10.32
2023-04-03T22:31:46.690Z,8.27
2023-04-03T22:36:49.153Z,8.15
2023-04-03T22:41:52.773Z,18.45
2023-04-03T22:46:55.347Z,15.13
2023-04-03T22:51:57.811Z,30.85
2023-04-03T22:57:00.426Z,23.40
2023-04-03T23:02:03.945Z,15.35
2023-04-03T23:07:06.894Z,10.60
2023-04-03T23:12:10.017Z,11.63
2023-04-03T23:17:12.476Z,15.80
2023-04-03T23:22:15.315Z,11.05
2023-04-03T23:27:18.406Z,9.30
2023-04-03T23:32:20.850Z,10.80
2023-04-03T23:37:23.423Z,9.02
2023-04-03T23:42:27.309Z,10.45
2023-04-03T23:47:30.089Z,10.10
2023-04-03T23:52:33.665Z,11.50
2023-04-03T23:57:36.413Z,12.75
